Airport View

Enter AWOS ICAO identifier for current METAR.

ex. KFNL

KFNL 101456Z 07008KT 10SM CLR 19/10 A3019 RMK AO2 SLP154 6//// T01940100 51010 PNO $

10 Aug 2020 15:56

Frequency: 135.075

Phone: 970-669-9187

Other Area AWOS: KGXY - KLMO - KEIK - KBDU

TAF KBJC 101145Z 1012/1112 35007KT P6SM FEW140 FM101700 08007KT P6SM SCT140 FM102300 11010KT P6SM VCTS SCT090CB BKN140 FM110300 19007KT P6SM SCT090 BKN140 FM110700 28005KT P6SM FEW090 SCT140